Main page
METAR-TAF:

METAR-TAF

Airports :

Tabriz International Airport

Tabriz, Iran

latitude: 38-05N, longitude: 046-17E, elevation: 1367 m

Current weather observation

The report was made 40 minutes ago, at 21:00 UTC
Wind 6 kt from the East/Southeast
Temperature 13°C
Humidity 47%
Pressure 1025 hPa
Visibility 10 km or more
no clouds below 1500 m and no cumulonimbus

METAR: OITT 172100Z 12006KT CAVOK 13/02 Q1025 A3027 NOSIG

Time: 01:10 (21:40 UTC)

Forecast

The report was made 4 hours and 10 minutes ago, at 17:30 UTC
Forecast valid from 17 at 18 UTC to 18 at 24 UTC
Wind 8 kt from the East/Southeast
Visibility: 7000 m
Few clouds at a height of 4000 ft

TAF: OITT 171730Z 1718/1824 12004MPS 7000 FEW040

Weather observations and forecasts of more than 4000 airports (METAR and TAF reports).

The available stations are represented by yellow and red dots on the map.

Hover mouse over dot to see the name of the station.

Then click to see weather observations and forecasts.

To change the map : click on the green buttons with a black cross to zoom in, on the green button with a dash to zoom out, or on the green arrows for adjacent maps.


METAR-TAF: